^^
Saratoga-Weather Station Historical Data
Daily Summary for February 25, 2021 Units:  Both    English   Metric
Daily Weekly Monthly Yearly Custom
  High: Low: Average:
Temperature: 64.8 °F /  18.2 °C 39.4 °F /  4.1 °C 50.4 °F /  10.2 °C
Dew Point: 44.6 °F /  7 °C 37.8 °F /  3.2 °C 41.7 °F /  5.4 °C
Humidity: 96% 44% 75%
Wind Speed: 6.9mph /  11.1km/h - 0.6mph /  0.9km/h
Wind Gust: 8mph /  12.9km/h - -
Wind- - East
Pressure: 30.4 in /  1028.1 hPa 30.3 in /  1025.7 hPa -
Precipitation: 0 in /  0.0 mm    
Historical Graphs
 
 
Tabular Data for February 25, 2021
Time Temperature Dew Point Pressure Wind Wind Speed Wind Gust Humidity Rainfall Rate (Hourly) solar
00:01 46 °F /  7.8 °C 43.3 °F /  6.3 °C 30.3in /  1027.4hPa Calm     90% 0in /  0.0mm 0 W/m2
00:06 45.9 °F /  7.7 °C 43.2 °F /  6.2 °C 30.3in /  1027.4hPa Calm     90% 0in /  0.0mm 0 W/m2
00:11 45.7 °F /  7.6 °C 43 °F /  6.1 °C 30.3in /  1027.4hPa Calm     90% 0in /  0.0mm 0 W/m2
00:16 45.5 °F /  7.5 °C 42.8 °F /  6 °C 30.3in /  1027.4hPa Calm     90% 0in /  0.0mm 0 W/m2
00:21 45.3 °F /  7.4 °C 42.6 °F /  5.9 °C 30.3in /  1027.4hPa Calm     90% 0in /  0.0mm 0 W/m2
00:26 45.3 °F /  7.4 °C 42.6 °F /  5.9 °C 30.3in /  1027.4hPa Calm     90% 0in /  0.0mm 0 W/m2
00:31 45.1 °F /  7.3 °C 42.6 °F /  5.9 °C 30.4in /  1027.8hPa Calm     91% 0in /  0.0mm 0 W/m2
00:36 45.1 °F /  7.3 °C 42.6 °F /  5.9 °C 30.3in /  1027.4hPa Calm     91% 0in /  0.0mm 0 W/m2
00:41 45 °F /  7.2 °C 42.4 °F /  5.8 °C 30.4in /  1027.8hPa Calm     91% 0in /  0.0mm 0 W/m2
00:46 45 °F /  7.2 °C 42.4 °F /  5.8 °C 30.3in /  1027.4hPa Calm     91% 0in /  0.0mm 0 W/m2
00:51 44.8 °F /  7.1 °C 42.3 °F /  5.7 °C 30.3in /  1027.4hPa Calm     91% 0in /  0.0mm 0 W/m2
00:56 44.6 °F /  7 °C 42.1 °F /  5.6 °C 30.3in /  1027.4hPa Calm     91% 0in /  0.0mm 0 W/m2
01:01 44.4 °F /  6.9 °C 42.3 °F /  5.7 °C 30.3in /  1027.4hPa Calm     92% 0in /  0.0mm 0 W/m2
01:06 44.2 °F /  6.8 °C 42.1 °F /  5.6 °C 30.4in /  1027.8hPa Calm     92% 0in /  0.0mm 0 W/m2
01:11 44.2 °F /  6.8 °C 42.1 °F /  5.6 °C 30.4in /  1027.8hPa Calm     92% 0in /  0.0mm 0 W/m2
01:16 44.1 °F /  6.7 °C 41.9 °F /  5.5 °C 30.4in /  1027.8hPa Calm     92% 0in /  0.0mm 0 W/m2
01:21 44.1 °F /  6.7 °C 41.9 °F /  5.5 °C 30.4in /  1027.8hPa Calm     92% 0in /  0.0mm 0 W/m2
01:26 43.9 °F /  6.6 °C 41.7 °F /  5.4 °C 30.4in /  1027.8hPa Calm     92% 0in /  0.0mm 0 W/m2
01:31 43.9 °F /  6.6 °C 41.7 °F /  5.4 °C 30.3in /  1027.4hPa Calm     92% 0in /  0.0mm 0 W/m2
01:36 43.9 °F /  6.6 °C 41.9 °F /  5.5 °C 30.3in /  1027.4hPa Calm     93% 0in /  0.0mm 0 W/m2
01:41 43.9 °F /  6.6 °C 41.9 °F /  5.5 °C 30.3in /  1027.4hPa Calm     93% 0in /  0.0mm 0 W/m2
01:46 43.9 °F /  6.6 °C 41.9 °F /  5.5 °C 30.3in /  1027.4hPa Calm     93% 0in /  0.0mm 0 W/m2
01:51 43.9 °F /  6.6 °C 41.9 °F /  5.5 °C 30.3in /  1027.4hPa Calm     93% 0in /  0.0mm 0 W/m2
01:56 43.9 °F /  6.6 °C 41.9 °F /  5.5 °C 30.3in /  1027.4hPa Calm     93% 0in /  0.0mm 0 W/m2
02:01 43.7 °F /  6.5 °C 41.7 °F /  5.4 °C 30.3in /  1027.4hPa Calm     93% 0in /  0.0mm 0 W/m2
02:06 43.7 °F /  6.5 °C 41.7 °F /  5.4 °C 30.3in /  1027.4hPa Calm     93% 0in /  0.0mm 0 W/m2
02:11 43.5 °F /  6.4 °C 41.7 °F /  5.4 °C 30.3in /  1027.4hPa Calm     93% 0in /  0.0mm 0 W/m2
02:16 43.3 °F /  6.3 °C 41.5 °F /  5.3 °C 30.3in /  1027.4hPa Calm     93% 0in /  0.0mm 0 W/m2
02:21 43.2 °F /  6.2 °C 41 °F /  5 °C 30.3in /  1027.4hPa Calm     92% 0in /  0.0mm 0 W/m2
02:26 43.2 °F /  6.2 °C 41 °F /  5 °C 30.3in /  1027.4hPa Calm     92% 0in /  0.0mm 0 W/m2
02:31 43.2 °F /  6.2 °C 41.4 °F /  5.2 °C 30.3in /  1027.4hPa Calm     93% 0in /  0.0mm 0 W/m2
02:36 43 °F /  6.1 °C 41.2 °F /  5.1 °C 30.3in /  1027.4hPa ESE 0.9mph /  1.4km/h 1mph /  1.6km/h 93% 0in /  0.0mm 0 W/m2
02:41 43 °F /  6.1 °C 41.2 °F /  5.1 °C 30.3in /  1027.4hPa Calm     93% 0in /  0.0mm 0 W/m2
02:46 43 °F /  6.1 °C 41.2 °F /  5.1 °C 30.3in /  1027.4hPa Calm     93% 0in /  0.0mm 0 W/m2
02:51 43.2 °F /  6.2 °C 41.4 °F /  5.2 °C 30.3in /  1027.4hPa Calm     93% 0in /  0.0mm 0 W/m2
02:56 43.3 °F /  6.3 °C 41.5 °F /  5.3 °C 30.3in /  1027.4hPa Calm     93% 0in /  0.0mm 0 W/m2
03:01 43.3 °F /  6.3 °C 41.5 °F /  5.3 °C 30.3in /  1027.4hPa Calm     93% 0in /  0.0mm 0 W/m2
03:06 43.2 °F /  6.2 °C 41.4 °F /  5.2 °C 30.3in /  1027.4hPa Calm     93% 0in /  0.0mm 0 W/m2
03:16 42.8 °F /  6 °C 41 °F /  5 °C 30.3in /  1027.4hPa Calm     93% 0in /  0.0mm 0 W/m2
03:21 42.8 °F /  6 °C 41 °F /  5 °C 30.3in /  1027.4hPa Calm   1mph /  1.6km/h 93% 0in /  0.0mm 0 W/m2
03:26 42.8 °F /  6 °C 41 °F /  5 °C 30.3in /  1027.4hPa Calm   1mph /  1.6km/h 93% 0in /  0.0mm 0 W/m2
03:31 42.6 °F /  5.9 °C 40.8 °F /  4.9 °C 30.3in /  1027.4hPa Calm     93% 0in /  0.0mm 0 W/m2
03:36 42.4 °F /  5.8 °C 40.6 °F /  4.8 °C 30.3in /  1027.1hPa Calm   1mph /  1.6km/h 93% 0in /  0.0mm 0 W/m2
03:41 42.4 °F /  5.8 °C 40.6 °F /  4.8 °C 30.3in /  1027.1hPa Calm     93% 0in /  0.0mm 0 W/m2
03:46 42.3 °F /  5.7 °C 40.5 °F /  4.7 °C 30.3in /  1027.1hPa Calm     93% 0in /  0.0mm 0 W/m2
03:51 42.1 °F /  5.6 °C 40.3 °F /  4.6 °C 30.3in /  1027.1hPa Calm     93% 0in /  0.0mm 0 W/m2
03:56 41.9 °F /  5.5 °C 40.1 °F /  4.5 °C 30.3in /  1027.1hPa Calm     93% 0in /  0.0mm 0 W/m2
04:02 41.7 °F /  5.4 °C 39.9 °F /  4.4 °C 30.3in /  1027.1hPa Calm     93% 0in /  0.0mm 0 W/m2
04:07 41.5 °F /  5.3 °C 39.7 °F /  4.3 °C 30.3in /  1027.1hPa Calm     93% 0in /  0.0mm 0 W/m2
04:12 41.5 °F /  5.3 °C 39.7 °F /  4.3 °C 30.3in /  1027.1hPa Calm     93% 0in /  0.0mm 0 W/m2
04:17 41.5 °F /  5.3 °C 39.9 °F /  4.4 °C 30.3in /  1027.1hPa Calm     94% 0in /  0.0mm 0 W/m2
04:22 41.5 °F /  5.3 °C 39.9 °F /  4.4 °C 30.3in /  1027.1hPa Calm     94% 0in /  0.0mm 0 W/m2
04:27 41.5 °F /  5.3 °C 39.7 °F /  4.3 °C 30.3in /  1027.1hPa Calm     93% 0in /  0.0mm 0 W/m2
04:32 41.4 °F /  5.2 °C 39.6 °F /  4.2 °C 30.3in /  1027.1hPa Calm     93% 0in /  0.0mm 0 W/m2
04:37 41.4 °F /  5.2 °C 39.6 °F /  4.2 °C 30.3in /  1027.1hPa Calm     93% 0in /  0.0mm 0 W/m2
04:42 41.2 °F /  5.1 °C 39.6 °F /  4.2 °C 30.3in /  1027.1hPa Calm     94% 0in /  0.0mm 0 W/m2
04:47 41.2 °F /  5.1 °C 39.6 °F /  4.2 °C 30.3in /  1027.1hPa Calm     94% 0in /  0.0mm 0 W/m2
04:52 41 °F /  5 °C 39.4 °F /  4.1 °C 30.3in /  1027.1hPa Calm     94% 0in /  0.0mm 0 W/m2
04:57 41 °F /  5 °C 39.4 °F /  4.1 °C 30.3in /  1027.1hPa Calm     94% 0in /  0.0mm 0 W/m2
05:02 40.8 °F /  4.9 °C 39.2 °F /  4 °C 30.3in /  1027.1hPa Calm     94% 0in /  0.0mm 0 W/m2
05:07 40.8 °F /  4.9 °C 39.2 °F /  4 °C 30.3in /  1027.4hPa Calm     94% 0in /  0.0mm 0 W/m2
05:12 40.8 °F /  4.9 °C 39.2 °F /  4 °C 30.3in /  1027.4hPa Calm     94% 0in /  0.0mm 0 W/m2
05:17 40.8 °F /  4.9 °C 39.2 °F /  4 °C 30.3in /  1027.4hPa Calm     94% 0in /  0.0mm 0 W/m2
05:22 41 °F /  5 °C 39.4 °F /  4.1 °C 30.3in /  1027.4hPa Calm     94% 0in /  0.0mm 0 W/m2
05:27 41 °F /  5 °C 39.4 °F /  4.1 °C 30.3in /  1027.4hPa Calm     94% 0in /  0.0mm 0 W/m2
05:32 41.4 °F /  5.2 °C 40.1 °F /  4.5 °C 30.3in /  1027.4hPa Calm   1mph /  1.6km/h 95% 0in /  0.0mm 0 W/m2
05:37 41.4 °F /  5.2 °C 40.1 °F /  4.5 °C 30.3in /  1027.4hPa Calm   1mph /  1.6km/h 95% 0in /  0.0mm 0 W/m2
05:42 41.4 °F /  5.2 °C 40.1 °F /  4.5 °C 30.3in /  1027.4hPa Calm     95% 0in /  0.0mm 0 W/m2
05:47 41.2 °F /  5.1 °C 39.6 °F /  4.2 °C 30.3in /  1027.4hPa Calm   1mph /  1.6km/h 94% 0in /  0.0mm 0 W/m2
05:52 41 °F /  5 °C 39.4 °F /  4.1 °C 30.3in /  1027.4hPa Calm     94% 0in /  0.0mm 0 W/m2
05:57 40.8 °F /  4.9 °C 39.2 °F /  4 °C 30.3in /  1027.4hPa Calm     94% 0in /  0.0mm 0 W/m2
06:02 40.6 °F /  4.8 °C 39 °F /  3.9 °C 30.3in /  1027.4hPa Calm     94% 0in /  0.0mm 0 W/m2
06:07 40.5 °F /  4.7 °C 38.8 °F /  3.8 °C 30.3in /  1027.4hPa Calm     94% 0in /  0.0mm 0 W/m2
06:12 40.3 °F /  4.6 °C 38.7 °F /  3.7 °C 30.3in /  1027.4hPa Calm     94% 0in /  0.0mm 0 W/m2
06:17 40.1 °F /  4.5 °C 38.5 °F /  3.6 °C 30.3in /  1027.4hPa Calm     94% 0in /  0.0mm 0 W/m2
06:22 39.9 °F /  4.4 °C 38.3 °F /  3.5 °C 30.3in /  1027.4hPa Calm     94% 0in /  0.0mm 0 W/m2
06:27 39.9 °F /  4.4 °C 38.3 °F /  3.5 °C 30.3in /  1027.4hPa Calm     94% 0in /  0.0mm 0 W/m2
06:32 39.9 °F /  4.4 °C 38.3 °F /  3.5 °C 30.3in /  1027.4hPa Calm     94% 0in /  0.0mm 0 W/m2
06:37 39.7 °F /  4.3 °C 38.1 °F /  3.4 °C 30.3in /  1027.4hPa Calm     94% 0in /  0.0mm 0 W/m2
06:42 39.7 °F /  4.3 °C 38.1 °F /  3.4 °C 30.3in /  1027.4hPa Calm     94% 0in /  0.0mm 0 W/m2
06:47 39.7 °F /  4.3 °C 38.1 °F /  3.4 °C 30.3in /  1027.4hPa Calm     94% 0in /  0.0mm 0 W/m2
06:52 39.7 °F /  4.3 °C 38.5 °F /  3.6 °C 30.3in /  1027.4hPa Calm     95% 0in /  0.0mm 0 W/m2
06:57 39.7 °F /  4.3 °C 38.5 °F /  3.6 °C 30.3in /  1027.4hPa Calm     95% 0in /  0.0mm 0 W/m2
07:02 39.6 °F /  4.2 °C 38.3 °F /  3.5 °C 30.3in /  1027.4hPa Calm     95% 0in /  0.0mm 0 W/m2
07:07 39.6 °F /  4.2 °C 38.3 °F /  3.5 °C 30.3in /  1027.4hPa Calm     95% 0in /  0.0mm 0 W/m2
07:12 39.7 °F /  4.3 °C 38.5 °F /  3.6 °C 30.3in /  1027.4hPa Calm     95% 0in /  0.0mm 0 W/m2
07:17 39.7 °F /  4.3 °C 38.5 °F /  3.6 °C 30.3in /  1027.4hPa Calm     95% 0in /  0.0mm 0 W/m2
07:27 39.7 °F /  4.3 °C 38.5 °F /  3.6 °C 30.3in /  1027.4hPa Calm     95% 0in /  0.0mm 0 W/m2
07:32 39.6 °F /  4.2 °C 38.3 °F /  3.5 °C 30.3in /  1027.4hPa Calm     95% 0in /  0.0mm 7 W/m2
07:37 39.4 °F /  4.1 °C 37.8 °F /  3.2 °C 30.3in /  1027.4hPa Calm     94% 0in /  0.0mm 9 W/m2
07:42 39.4 °F /  4.1 °C 38.1 °F /  3.4 °C 30.3in /  1027.4hPa Calm     95% 0in /  0.0mm 12 W/m2
07:47 39.4 °F /  4.1 °C 38.1 °F /  3.4 °C 30.3in /  1027.4hPa Calm     95% 0in /  0.0mm 14 W/m2
07:52 39.6 °F /  4.2 °C 38.3 °F /  3.5 °C 30.3in /  1027.4hPa Calm     95% 0in /  0.0mm 18 W/m2
07:57 39.6 °F /  4.2 °C 38.3 °F /  3.5 °C 30.3in /  1027.4hPa Calm     95% 0in /  0.0mm 21 W/m2
08:02 39.6 °F /  4.2 °C 38.3 °F /  3.5 °C 30.4in /  1027.8hPa Calm     95% 0in /  0.0mm 25 W/m2
08:07 39.6 °F /  4.2 °C 38.3 °F /  3.5 °C 30.4in /  1027.8hPa Calm     95% 0in /  0.0mm 28 W/m2
08:12 39.6 °F /  4.2 °C 38.3 °F /  3.5 °C 30.3in /  1027.4hPa Calm     95% 0in /  0.0mm 32 W/m2
08:17 39.6 °F /  4.2 °C 38.3 °F /  3.5 °C 30.4in /  1027.8hPa Calm     95% 0in /  0.0mm 35 W/m2
08:22 39.6 °F /  4.2 °C 38.3 °F /  3.5 °C 30.4in /  1027.8hPa Calm     95% 0in /  0.0mm 39 W/m2
08:27 39.6 °F /  4.2 °C 38.3 °F /  3.5 °C 30.4in /  1027.8hPa Calm     95% 0in /  0.0mm 42 W/m2
08:32 39.7 °F /  4.3 °C 38.5 °F /  3.6 °C 30.4in /  1027.8hPa Calm   1mph /  1.6km/h 95% 0in /  0.0mm 49 W/m2
08:37 40.3 °F /  4.6 °C 39.2 °F /  4 °C 30.4in /  1027.8hPa Calm   1mph /  1.6km/h 96% 0in /  0.0mm 49 W/m2
08:42 40.6 °F /  4.8 °C 39.6 °F /  4.2 °C 30.4in /  1027.8hPa Calm     96% 0in /  0.0mm 90 W/m2
08:47 40.8 °F /  4.9 °C 39.6 °F /  4.2 °C 30.4in /  1027.8hPa Calm     95% 0in /  0.0mm 100 W/m2
08:52 41.2 °F /  5.1 °C 39.9 °F /  4.4 °C 30.4in /  1027.8hPa Calm     95% 0in /  0.0mm 113 W/m2
08:57 41.4 °F /  5.2 °C 40.1 °F /  4.5 °C 30.4in /  1027.8hPa Calm     95% 0in /  0.0mm 116 W/m2
09:02 41.7 °F /  5.4 °C 40.5 °F /  4.7 °C 30.4in /  1027.8hPa Calm     95% 0in /  0.0mm 120 W/m2
09:07 42.1 °F /  5.6 °C 40.8 °F /  4.9 °C 30.4in /  1027.8hPa Calm     95% 0in /  0.0mm 120 W/m2
09:12 42.4 °F /  5.8 °C 41.2 °F /  5.1 °C 30.4in /  1027.8hPa Calm     95% 0in /  0.0mm 116 W/m2
09:17 43 °F /  6.1 °C 41.7 °F /  5.4 °C 30.4in /  1027.8hPa Calm     95% 0in /  0.0mm 98 W/m2
09:22 43.5 °F /  6.4 °C 41.9 °F /  5.5 °C 30.4in /  1027.8hPa Calm     94% 0in /  0.0mm 148 W/m2
09:27 43.9 °F /  6.6 °C 42.3 °F /  5.7 °C 30.4in /  1028.1hPa Calm     94% 0in /  0.0mm 104 W/m2
09:32 44.4 °F /  6.9 °C 42.4 °F /  5.8 °C 30.4in /  1028.1hPa Calm     93% 0in /  0.0mm 206 W/m2
09:37 45.1 °F /  7.3 °C 43 °F /  6.1 °C 30.4in /  1028.1hPa Calm   1mph /  1.6km/h 92% 0in /  0.0mm 197 W/m2
09:42 45.7 °F /  7.6 °C 43.2 °F /  6.2 °C 30.4in /  1028.1hPa Calm     91% 0in /  0.0mm 229 W/m2
09:47 46.2 °F /  7.9 °C 43.2 °F /  6.2 °C 30.4in /  1028.1hPa Calm     89% 0in /  0.0mm 241 W/m2
09:52 46.8 °F /  8.2 °C 43.2 °F /  6.2 °C 30.4in /  1028.1hPa Calm     87% 0in /  0.0mm 255 W/m2
09:57 47.7 °F /  8.7 °C 44.1 °F /  6.7 °C 30.4in /  1028.1hPa Calm     87% 0in /  0.0mm 269 W/m2
10:07 49.1 °F /  9.5 °C 43.2 °F /  6.2 °C 30.4in /  1028.1hPa Calm   2mph /  3.2km/h 80% 0in /  0.0mm 294 W/m2
10:12 49.5 °F /  9.7 °C 42.8 °F /  6 °C 30.4in /  1028.1hPa Calm     78% 0in /  0.0mm 304 W/m2
10:17 50.2 °F /  10.1 °C 43.5 °F /  6.4 °C 30.4in /  1028.1hPa Calm   2mph /  3.2km/h 78% 0in /  0.0mm 313 W/m2
10:22 50.7 °F /  10.4 °C 43.5 °F /  6.4 °C 30.4in /  1028.1hPa Calm   2mph /  3.2km/h 76% 0in /  0.0mm 327 W/m2
10:27 51.3 °F /  10.7 °C 43.9 °F /  6.6 °C 30.4in /  1028.1hPa ENE 0.9mph /  1.4km/h 3mph /  4.8km/h 76% 0in /  0.0mm 338 W/m2
10:32 51.3 °F /  10.7 °C 43.5 °F /  6.4 °C 30.4in /  1028.1hPa Calm   3mph /  4.8km/h 75% 0in /  0.0mm 345 W/m2
10:37 51.4 °F /  10.8 °C 43.5 °F /  6.4 °C 30.4in /  1028.1hPa East 2.9mph /  4.7km/h 3mph /  4.8km/h 74% 0in /  0.0mm 353 W/m2
10:42 51.8 °F /  11 °C 43.7 °F /  6.5 °C 30.4in /  1028.1hPa East 0.9mph /  1.4km/h 1mph /  1.6km/h 74% 0in /  0.0mm 357 W/m2
10:47 52.2 °F /  11.2 °C 43.7 °F /  6.5 °C 30.4in /  1028.1hPa Calm   3mph /  4.8km/h 73% 0in /  0.0mm 357 W/m2
10:52 52.9 °F /  11.6 °C 43.7 °F /  6.5 °C 30.4in /  1028.1hPa Calm   2mph /  3.2km/h 71% 0in /  0.0mm 380 W/m2
10:57 53.2 °F /  11.8 °C 43.7 °F /  6.5 °C 30.4in /  1028.1hPa Calm     70% 0in /  0.0mm 371 W/m2
11:02 53.8 °F /  12.1 °C 43.5 °F /  6.4 °C 30.4in /  1027.8hPa Calm   1mph /  1.6km/h 68% 0in /  0.0mm 396 W/m2
11:07 54.3 °F /  12.4 °C 44.1 °F /  6.7 °C 30.4in /  1027.8hPa ENE 0.9mph /  1.4km/h 2mph /  3.2km/h 68% 0in /  0.0mm 404 W/m2
11:12 55 °F /  12.8 °C 44.6 °F /  7 °C 30.4in /  1027.8hPa Calm   3mph /  4.8km/h 68% 0in /  0.0mm 410 W/m2
11:17 55.2 °F /  12.9 °C 44.1 °F /  6.7 °C 30.4in /  1027.8hPa ENE 2.9mph /  4.7km/h 3mph /  4.8km/h 66% 0in /  0.0mm 404 W/m2
11:22 55.8 °F /  13.2 °C 43.7 °F /  6.5 °C 30.4in /  1027.8hPa East 2mph /  3.2km/h 4mph /  6.4km/h 64% 0in /  0.0mm 406 W/m2
11:27 55.9 °F /  13.3 °C 43.9 °F /  6.6 °C 30.4in /  1027.8hPa ENE 0.9mph /  1.4km/h 4mph /  6.4km/h 64% 0in /  0.0mm 308 W/m2
11:32 56.1 °F /  13.4 °C 44.1 °F /  6.7 °C 30.4in /  1027.8hPa ENE 2mph /  3.2km/h 2mph /  3.2km/h 64% 0in /  0.0mm 250 W/m2
11:37 56.1 °F /  13.4 °C 44.1 °F /  6.7 °C 30.4in /  1027.8hPa ENE 0.9mph /  1.4km/h 4mph /  6.4km/h 64% 0in /  0.0mm 255 W/m2
11:42 56.5 °F /  13.6 °C 43.7 °F /  6.5 °C 30.4in /  1027.8hPa ENE 2mph /  3.2km/h 2mph /  3.2km/h 62% 0in /  0.0mm 176 W/m2
11:47 56.8 °F /  13.8 °C 43.5 °F /  6.4 °C 30.4in /  1027.8hPa East 2mph /  3.2km/h 3mph /  4.8km/h 61% 0in /  0.0mm 223 W/m2
11:52 57.2 °F /  14 °C 43.5 °F /  6.4 °C 30.4in /  1027.8hPa ENE 0.9mph /  1.4km/h 2mph /  3.2km/h 60% 0in /  0.0mm 364 W/m2
11:57 57.7 °F /  14.3 °C 43.9 °F /  6.6 °C 30.4in /  1027.8hPa East 2mph /  3.2km/h 4mph /  6.4km/h 60% 0in /  0.0mm 294 W/m2
12:02 58.3 °F /  14.6 °C 43.5 °F /  6.4 °C 30.4in /  1027.8hPa NE 2mph /  3.2km/h 4mph /  6.4km/h 58% 0in /  0.0mm 404 W/m2
12:07 58.6 °F /  14.8 °C 43.5 °F /  6.4 °C 30.4in /  1027.8hPa East 0.9mph /  1.4km/h 4mph /  6.4km/h 57% 0in /  0.0mm 399 W/m2
12:12 59 °F /  15 °C 43.3 °F /  6.3 °C 30.4in /  1027.8hPa Calm   2mph /  3.2km/h 56% 0in /  0.0mm 438 W/m2
12:17 59.5 °F /  15.3 °C 43.9 °F /  6.6 °C 30.4in /  1027.8hPa NE 0.9mph /  1.4km/h 5mph /  8km/h 56% 0in /  0.0mm 448 W/m2
12:22 59.9 °F /  15.5 °C 43.2 °F /  6.2 °C 30.4in /  1027.8hPa East 2mph /  3.2km/h 3mph /  4.8km/h 54% 0in /  0.0mm 469 W/m2
12:27 60.4 °F /  15.8 °C 43.7 °F /  6.5 °C 30.3in /  1027.4hPa SE 0.9mph /  1.4km/h 5mph /  8km/h 54% 0in /  0.0mm 469 W/m2
12:32 60.6 °F /  15.9 °C 43.3 °F /  6.3 °C 30.3in /  1027.4hPa NE 4mph /  6.4km/h 4mph /  6.4km/h 53% 0in /  0.0mm 471 W/m2
12:37 61 °F /  16.1 °C 43.7 °F /  6.5 °C 30.3in /  1027.4hPa ENE 2.9mph /  4.7km/h 5mph /  8km/h 53% 0in /  0.0mm 367 W/m2
12:42 61.2 °F /  16.2 °C 43.3 °F /  6.3 °C 30.3in /  1027.4hPa ENE 0.9mph /  1.4km/h 4mph /  6.4km/h 52% 0in /  0.0mm 345 W/m2
12:47 61.2 °F /  16.2 °C 43 °F /  6.1 °C 30.3in /  1027.4hPa ENE 2mph /  3.2km/h 5mph /  8km/h 51% 0in /  0.0mm 427 W/m2
12:52 61.2 °F /  16.2 °C 43.3 °F /  6.3 °C 30.3in /  1027.4hPa East 2mph /  3.2km/h 4mph /  6.4km/h 52% 0in /  0.0mm 366 W/m2
12:57 61.3 °F /  16.3 °C 43.5 °F /  6.4 °C 30.3in /  1027.1hPa NE 2mph /  3.2km/h 3mph /  4.8km/h 52% 0in /  0.0mm 443 W/m2
13:02 61.7 °F /  16.5 °C 43.9 °F /  6.6 °C 30.3in /  1027.1hPa East 4mph /  6.4km/h 6mph /  9.7km/h 52% 0in /  0.0mm 464 W/m2
13:07 62.1 °F /  16.7 °C 43.7 °F /  6.5 °C 30.3in /  1027.1hPa East 2.9mph /  4.7km/h 3mph /  4.8km/h 51% 0in /  0.0mm 411 W/m2
13:12 62.1 °F /  16.7 °C 43.7 °F /  6.5 °C 30.3in /  1027.1hPa East 4mph /  6.4km/h 8mph /  12.9km/h 51% 0in /  0.0mm 401 W/m2
13:17 62.2 °F /  16.8 °C 43.3 °F /  6.3 °C 30.3in /  1027.1hPa ENE 2mph /  3.2km/h 4mph /  6.4km/h 50% 0in /  0.0mm 318 W/m2
13:22 62.4 °F /  16.9 °C 44.6 °F /  7 °C 30.3in /  1027.1hPa SE 2mph /  3.2km/h 4mph /  6.4km/h 52% 0in /  0.0mm 192 W/m2
13:27 62.6 °F /  17 °C 43.2 °F /  6.2 °C 30.3in /  1026.8hPa East 6mph /  9.7km/h 6mph /  9.7km/h 49% 0in /  0.0mm 169 W/m2
13:32 62.8 °F /  17.1 °C 43.9 °F /  6.6 °C 30.3in /  1026.8hPa East 2.9mph /  4.7km/h 4mph /  6.4km/h 50% 0in /  0.0mm 193 W/m2
13:38 62.8 °F /  17.1 °C 43.3 °F /  6.3 °C 30.3in /  1026.8hPa East 4mph /  6.4km/h 6mph /  9.7km/h 49% 0in /  0.0mm 169 W/m2
13:43 63 °F /  17.2 °C 44.1 °F /  6.7 °C 30.3in /  1026.8hPa East 4mph /  6.4km/h 4mph /  6.4km/h 50% 0in /  0.0mm 186 W/m2
13:48 63 °F /  17.2 °C 43 °F /  6.1 °C 30.3in /  1026.8hPa Calm   4mph /  6.4km/h 48% 0in /  0.0mm 169 W/m2
13:53 63 °F /  17.2 °C 43.5 °F /  6.4 °C 30.3in /  1026.8hPa ESE 2mph /  3.2km/h 4mph /  6.4km/h 49% 0in /  0.0mm 188 W/m2
13:58 63.1 °F /  17.3 °C 43.2 °F /  6.2 °C 30.3in /  1026.4hPa ENE 4.9mph /  7.9km/h 6mph /  9.7km/h 48% 0in /  0.0mm 197 W/m2
14:03 63.3 °F /  17.4 °C 43.3 °F /  6.3 °C 30.3in /  1026.4hPa SE 4mph /  6.4km/h 7mph /  11.3km/h 48% 0in /  0.0mm 188 W/m2
14:08 63.3 °F /  17.4 °C 42.8 °F /  6 °C 30.3in /  1026.1hPa SE 0.9mph /  1.4km/h 4mph /  6.4km/h 47% 0in /  0.0mm 139 W/m2
14:13 63.5 °F /  17.5 °C 43.5 °F /  6.4 °C 30.3in /  1026.4hPa East 2mph /  3.2km/h 4mph /  6.4km/h 48% 0in /  0.0mm 165 W/m2
14:18 63.7 °F /  17.6 °C 43.7 °F /  6.5 °C 30.3in /  1026.1hPa East 2mph /  3.2km/h 4mph /  6.4km/h 48% 0in /  0.0mm 207 W/m2
14:23 63.9 °F /  17.7 °C 43.2 °F /  6.2 °C 30.3in /  1026.1hPa ENE 2mph /  3.2km/h 5mph /  8km/h 47% 0in /  0.0mm 176 W/m2
14:28 64 °F /  17.8 °C 43.3 °F /  6.3 °C 30.3in /  1026.1hPa East 2mph /  3.2km/h 3mph /  4.8km/h 47% 0in /  0.0mm 204 W/m2
14:33 64.2 °F /  17.9 °C 43 °F /  6.1 °C 30.3in /  1026.1hPa ESE 2.9mph /  4.7km/h 6mph /  9.7km/h 46% 0in /  0.0mm 225 W/m2
14:38 64.4 °F /  18 °C 43.2 °F /  6.2 °C 30.3in /  1026.1hPa ESE 0.9mph /  1.4km/h 7mph /  11.3km/h 46% 0in /  0.0mm 357 W/m2
14:43 64.6 °F /  18.1 °C 43.3 °F /  6.3 °C 30.3in /  1026.1hPa NE 0.9mph /  1.4km/h 4mph /  6.4km/h 46% 0in /  0.0mm 334 W/m2
14:48 64.8 °F /  18.2 °C 43 °F /  6.1 °C 30.3in /  1026.1hPa East 6.9mph /  11.1km/h 7mph /  11.3km/h 45% 0in /  0.0mm 230 W/m2
14:53 64.8 °F /  18.2 °C 43 °F /  6.1 °C 30.3in /  1026.1hPa ESE 2.9mph /  4.7km/h 6mph /  9.7km/h 45% 0in /  0.0mm 160 W/m2
14:58 64.8 °F /  18.2 °C 43 °F /  6.1 °C 30.3in /  1026.1hPa East 2mph /  3.2km/h 7mph /  11.3km/h 45% 0in /  0.0mm 190 W/m2
15:03 64.8 °F /  18.2 °C 43.5 °F /  6.4 °C 30.3in /  1026.1hPa East 4.9mph /  7.9km/h 6mph /  9.7km/h 46% 0in /  0.0mm 229 W/m2
15:08 64.6 °F /  18.1 °C 42.3 °F /  5.7 °C 30.3in /  1026.1hPa East 2.9mph /  4.7km/h 7mph /  11.3km/h 44% 0in /  0.0mm 200 W/m2
15:13 64.6 °F /  18.1 °C 42.8 °F /  6 °C 30.3in /  1026.1hPa East 4.9mph /  7.9km/h 7mph /  11.3km/h 45% 0in /  0.0mm 146 W/m2
15:18 64.8 °F /  18.2 °C 43 °F /  6.1 °C 30.3in /  1026.1hPa East 0.9mph /  1.4km/h 5mph /  8km/h 45% 0in /  0.0mm 156 W/m2
15:23 64.8 °F /  18.2 °C 42.3 °F /  5.7 °C 30.3in /  1026.1hPa ENE 2.9mph /  4.7km/h 6mph /  9.7km/h 44% 0in /  0.0mm 169 W/m2
15:28 64.8 °F /  18.2 °C 42.3 °F /  5.7 °C 30.3in /  1025.7hPa SSE 0.9mph /  1.4km/h 4mph /  6.4km/h 44% 0in /  0.0mm 142 W/m2
15:33 64.8 °F /  18.2 °C 43 °F /  6.1 °C 30.3in /  1025.7hPa ESE 2.9mph /  4.7km/h 3mph /  4.8km/h 45% 0in /  0.0mm 213 W/m2
15:38 64.8 °F /  18.2 °C 43 °F /  6.1 °C 30.3in /  1025.7hPa East 6.9mph /  11.1km/h 8mph /  12.9km/h 45% 0in /  0.0mm 144 W/m2
15:43 64.8 °F /  18.2 °C 43.5 °F /  6.4 °C 30.3in /  1025.7hPa East 0.9mph /  1.4km/h 2mph /  3.2km/h 46% 0in /  0.0mm 125 W/m2
15:48 64.6 °F /  18.1 °C 42.8 °F /  6 °C 30.3in /  1025.7hPa ESE 0.9mph /  1.4km/h 8mph /  12.9km/h 45% 0in /  0.0mm 123 W/m2
15:53 64.4 °F /  18 °C 43.7 °F /  6.5 °C 30.3in /  1025.7hPa WSW 0.9mph /  1.4km/h 3mph /  4.8km/h 47% 0in /  0.0mm 158 W/m2
15:58 64.2 °F /  17.9 °C 42.4 °F /  5.8 °C 30.3in /  1025.7hPa ESE 0.9mph /  1.4km/h 4mph /  6.4km/h 45% 0in /  0.0mm 148 W/m2
16:03 64.2 °F /  17.9 °C 42.4 °F /  5.8 °C 30.3in /  1025.7hPa ESE 0.9mph /  1.4km/h 6mph /  9.7km/h 45% 0in /  0.0mm 153 W/m2
16:08 64.2 °F /  17.9 °C 43 °F /  6.1 °C 30.3in /  1025.7hPa ESE 2.9mph /  4.7km/h 3mph /  4.8km/h 46% 0in /  0.0mm 128 W/m2
16:13 64.2 °F /  17.9 °C 43 °F /  6.1 °C 30.3in /  1025.7hPa ESE 0.9mph /  1.4km/h 3mph /  4.8km/h 46% 0in /  0.0mm 134 W/m2
16:18 64 °F /  17.8 °C 42.8 °F /  6 °C 30.3in /  1025.7hPa ESE 2mph /  3.2km/h 2mph /  3.2km/h 46% 0in /  0.0mm 174 W/m2
16:23 64 °F /  17.8 °C 42.8 °F /  6 °C 30.3in /  1025.7hPa Calm   2mph /  3.2km/h 46% 0in /  0.0mm 183 W/m2
16:28 64 °F /  17.8 °C 43.9 °F /  6.6 °C 30.3in /  1025.7hPa Calm   1mph /  1.6km/h 48% 0in /  0.0mm 135 W/m2
16:33 63.9 °F /  17.7 °C 42.1 °F /  5.6 °C 30.3in /  1025.7hPa SE 0.9mph /  1.4km/h 1mph /  1.6km/h 45% 0in /  0.0mm 130 W/m2
16:38 63.9 °F /  17.7 °C 43.2 °F /  6.2 °C 30.3in /  1025.7hPa Calm     47% 0in /  0.0mm 105 W/m2
16:43 63.7 °F /  17.6 °C 42.4 °F /  5.8 °C 30.3in /  1025.7hPa Calm     46% 0in /  0.0mm 98 W/m2
16:48 63.7 °F /  17.6 °C 41.9 °F /  5.5 °C 30.3in /  1025.7hPa Calm   2mph /  3.2km/h 45% 0in /  0.0mm 91 W/m2
16:53 63.7 °F /  17.6 °C 44.2 °F /  6.8 °C 30.3in /  1025.7hPa Calm   2mph /  3.2km/h 49% 0in /  0.0mm 86 W/m2
17:03 63.1 °F /  17.3 °C 43.7 °F /  6.5 °C 30.3in /  1025.7hPa Calm   1mph /  1.6km/h 49% 0in /  0.0mm 74 W/m2
17:08 63 °F /  17.2 °C 43.5 °F /  6.4 °C 30.3in /  1025.7hPa Calm   1mph /  1.6km/h 49% 0in /  0.0mm 58 W/m2
17:13 62.4 °F /  16.9 °C 44.1 °F /  6.7 °C 30.3in /  1025.7hPa Calm     51% 0in /  0.0mm 49 W/m2
17:18 62.1 °F /  16.7 °C 44.2 °F /  6.8 °C 30.3in /  1025.7hPa Calm     52% 0in /  0.0mm 44 W/m2
17:28 61 °F /  16.1 °C 43.7 °F /  6.5 °C 30.3in /  1026.1hPa Calm     53% 0in /  0.0mm 35 W/m2
17:33 60.4 °F /  15.8 °C 43.7 °F /  6.5 °C 30.3in /  1026.1hPa Calm     54% 0in /  0.0mm 33 W/m2
17:38 60.1 °F /  15.6 °C 43.9 °F /  6.6 °C 30.3in /  1026.1hPa Calm     55% 0in /  0.0mm 32 W/m2
17:43 59.5 °F /  15.3 °C 43.9 °F /  6.6 °C 30.3in /  1026.1hPa Calm     56% 0in /  0.0mm 28 W/m2
17:48 59.2 °F /  15.1 °C 43.5 °F /  6.4 °C 30.3in /  1026.1hPa Calm     56% 0in /  0.0mm 26 W/m2
17:53 58.6 °F /  14.8 °C 43.5 °F /  6.4 °C 30.3in /  1026.1hPa Calm   1mph /  1.6km/h 57% 0in /  0.0mm 21 W/m2
17:58 58.3 °F /  14.6 °C 43.2 °F /  6.2 °C 30.3in /  1026.1hPa Calm   1mph /  1.6km/h 57% 0in /  0.0mm 14 W/m2
18:03 57.7 °F /  14.3 °C 43 °F /  6.1 °C 30.3in /  1026.1hPa Calm     58% 0in /  0.0mm 7 W/m2
18:08 57.4 °F /  14.1 °C 43.2 °F /  6.2 °C 30.3in /  1026.4hPa ESE 0.9mph /  1.4km/h 1mph /  1.6km/h 59% 0in /  0.0mm 5 W/m2
18:13 56.8 °F /  13.8 °C 42.6 °F /  5.9 °C 30.3in /  1026.4hPa Calm   1mph /  1.6km/h 59% 0in /  0.0mm 0 W/m2
18:18 56.5 °F /  13.6 °C 42.8 °F /  6 °C 30.3in /  1026.4hPa Calm   1mph /  1.6km/h 60% 0in /  0.0mm 0 W/m2
18:23 55.9 °F /  13.3 °C 43.2 °F /  6.2 °C 30.3in /  1026.4hPa ESE 0.9mph /  1.4km/h 2mph /  3.2km/h 62% 0in /  0.0mm 0 W/m2
18:28 55.6 °F /  13.1 °C 42.8 °F /  6 °C 30.3in /  1026.4hPa ESE 0.9mph /  1.4km/h 1mph /  1.6km/h 62% 0in /  0.0mm 0 W/m2
18:33 55.2 °F /  12.9 °C 42.8 °F /  6 °C 30.3in /  1026.8hPa ESE 0.9mph /  1.4km/h 2mph /  3.2km/h 63% 0in /  0.0mm 0 W/m2
18:38 54.7 °F /  12.6 °C 42.3 °F /  5.7 °C 30.3in /  1026.8hPa ESE 0.9mph /  1.4km/h 2mph /  3.2km/h 63% 0in /  0.0mm 0 W/m2
18:43 54.3 °F /  12.4 °C 42.4 °F /  5.8 °C 30.3in /  1026.8hPa Calm     64% 0in /  0.0mm 0 W/m2
18:48 54.1 °F /  12.3 °C 42.6 °F /  5.9 °C 30.3in /  1026.8hPa Calm     65% 0in /  0.0mm 0 W/m2
18:53 53.8 °F /  12.1 °C 42.3 °F /  5.7 °C 30.3in /  1026.8hPa ESE 0.9mph /  1.4km/h 1mph /  1.6km/h 65% 0in /  0.0mm 0 W/m2
18:58 53.8 °F /  12.1 °C 42.3 °F /  5.7 °C 30.3in /  1026.8hPa Calm   1mph /  1.6km/h 65% 0in /  0.0mm 0 W/m2
19:03 53.4 °F /  11.9 °C 42.3 °F /  5.7 °C 30.3in /  1026.8hPa Calm   1mph /  1.6km/h 66% 0in /  0.0mm 0 W/m2
19:08 53.2 °F /  11.8 °C 42.6 °F /  5.9 °C 30.3in /  1026.8hPa Calm     67% 0in /  0.0mm 0 W/m2
19:13 53.1 °F /  11.7 °C 42.4 °F /  5.8 °C 30.3in /  1026.8hPa Calm   1mph /  1.6km/h 67% 0in /  0.0mm 0 W/m2
19:18 52.7 °F /  11.5 °C 42.4 °F /  5.8 °C 30.3in /  1026.8hPa Calm     68% 0in /  0.0mm 0 W/m2
19:23 52.3 °F /  11.3 °C 42.1 °F /  5.6 °C 30.3in /  1026.8hPa Calm     68% 0in /  0.0mm 0 W/m2
19:28 52.2 °F /  11.2 °C 41.9 °F /  5.5 °C 30.3in /  1026.8hPa Calm     68% 0in /  0.0mm 0 W/m2
19:33 52 °F /  11.1 °C 41.7 °F /  5.4 °C 30.3in /  1027.1hPa Calm     68% 0in /  0.0mm 0 W/m2
19:38 51.6 °F /  10.9 °C 41.7 °F /  5.4 °C 30.3in /  1027.1hPa Calm     69% 0in /  0.0mm 0 W/m2
19:43 51.6 °F /  10.9 °C 41.7 °F /  5.4 °C 30.3in /  1027.1hPa Calm     69% 0in /  0.0mm 0 W/m2
19:48 51.4 °F /  10.8 °C 41.5 °F /  5.3 °C 30.3in /  1027.1hPa Calm     69% 0in /  0.0mm 0 W/m2
19:53 51.4 °F /  10.8 °C 41.5 °F /  5.3 °C 30.3in /  1027.1hPa Calm   1mph /  1.6km/h 69% 0in /  0.0mm 0 W/m2
19:58 51.3 °F /  10.7 °C 41.9 °F /  5.5 °C 30.3in /  1027.1hPa Calm     70% 0in /  0.0mm 0 W/m2
20:03 51.1 °F /  10.6 °C 41.7 °F /  5.4 °C 30.3in /  1027.1hPa Calm     70% 0in /  0.0mm 0 W/m2
20:09 51.1 °F /  10.6 °C 41.7 °F /  5.4 °C 30.3in /  1027.1hPa Calm     70% 0in /  0.0mm 0 W/m2
20:14 50.9 °F /  10.5 °C 41.5 °F /  5.3 °C 30.3in /  1027.1hPa Calm     70% 0in /  0.0mm 0 W/m2
20:19 50.7 °F /  10.4 °C 41.4 °F /  5.2 °C 30.3in /  1027.1hPa Calm     70% 0in /  0.0mm 0 W/m2
20:24 50.7 °F /  10.4 °C 41.7 °F /  5.4 °C 30.3in /  1027.1hPa Calm     71% 0in /  0.0mm 0 W/m2
20:29 50.5 °F /  10.3 °C 41.5 °F /  5.3 °C 30.3in /  1027.1hPa Calm     71% 0in /  0.0mm 0 W/m2
20:34 50.5 °F /  10.3 °C 41.5 °F /  5.3 °C 30.3in /  1027.4hPa Calm     71% 0in /  0.0mm 0 W/m2
20:39 50.4 °F /  10.2 °C 41.4 °F /  5.2 °C 30.3in /  1027.4hPa Calm     71% 0in /  0.0mm 0 W/m2
20:44 50.4 °F /  10.2 °C 41.4 °F /  5.2 °C 30.3in /  1027.4hPa Calm     71% 0in /  0.0mm 0 W/m2
20:49 50.2 °F /  10.1 °C 41.2 °F /  5.1 °C 30.3in /  1027.4hPa Calm     71% 0in /  0.0mm 0 W/m2
20:54 50 °F /  10 °C 41 °F /  5 °C 30.3in /  1027.4hPa Calm     71% 0in /  0.0mm 0 W/m2
20:59 49.8 °F /  9.9 °C 40.8 °F /  4.9 °C 30.3in /  1027.4hPa Calm     71% 0in /  0.0mm 0 W/m2
21:04 49.8 °F /  9.9 °C 40.5 °F /  4.7 °C 30.3in /  1027.4hPa Calm     70% 0in /  0.0mm 0 W/m2
21:09 49.6 °F /  9.8 °C 40.3 °F /  4.6 °C 30.3in /  1027.4hPa Calm     70% 0in /  0.0mm 0 W/m2
21:14 49.8 °F /  9.9 °C 40.5 °F /  4.7 °C 30.3in /  1027.4hPa Calm     70% 0in /  0.0mm 0 W/m2
21:19 49.8 °F /  9.9 °C 40.8 °F /  4.9 °C 30.4in /  1027.8hPa Calm     71% 0in /  0.0mm 0 W/m2
21:24 49.6 °F /  9.8 °C 41 °F /  5 °C 30.4in /  1027.8hPa Calm     72% 0in /  0.0mm 0 W/m2
21:29 49.5 °F /  9.7 °C 40.8 °F /  4.9 °C 30.4in /  1027.8hPa Calm     72% 0in /  0.0mm 0 W/m2
21:34 49.3 °F /  9.6 °C 40.6 °F /  4.8 °C 30.4in /  1027.8hPa Calm     72% 0in /  0.0mm 0 W/m2
21:39 49.3 °F /  9.6 °C 40.6 °F /  4.8 °C 30.4in /  1027.8hPa Calm     72% 0in /  0.0mm 0 W/m2
21:44 49.3 °F /  9.6 °C 41 °F /  5 °C 30.4in /  1027.8hPa Calm     73% 0in /  0.0mm 0 W/m2
21:49 49.5 °F /  9.7 °C 41.2 °F /  5.1 °C 30.4in /  1028.1hPa Calm     73% 0in /  0.0mm 0 W/m2
21:54 49.5 °F /  9.7 °C 41.2 °F /  5.1 °C 30.4in /  1028.1hPa Calm     73% 0in /  0.0mm 0 W/m2
21:59 49.3 °F /  9.6 °C 41 °F /  5 °C 30.4in /  1028.1hPa Calm     73% 0in /  0.0mm 0 W/m2
22:04 49.3 °F /  9.6 °C 41 °F /  5 °C 30.4in /  1028.1hPa Calm     73% 0in /  0.0mm 0 W/m2
22:09 49.1 °F /  9.5 °C 41.2 °F /  5.1 °C 30.4in /  1028.1hPa Calm     74% 0in /  0.0mm 0 W/m2
22:14 48.7 °F /  9.3 °C 40.8 °F /  4.9 °C 30.4in /  1028.1hPa Calm     74% 0in /  0.0mm 0 W/m2
22:19 48.7 °F /  9.3 °C 41.2 °F /  5.1 °C 30.4in /  1028.1hPa Calm     75% 0in /  0.0mm 0 W/m2
22:24 48.6 °F /  9.2 °C 41.4 °F /  5.2 °C 30.4in /  1028.1hPa Calm     76% 0in /  0.0mm 0 W/m2
22:29 48.4 °F /  9.1 °C 41.2 °F /  5.1 °C 30.4in /  1028.1hPa Calm     76% 0in /  0.0mm 0 W/m2
22:34 48.4 °F /  9.1 °C 41.5 °F /  5.3 °C 30.4in /  1028.1hPa Calm     77% 0in /  0.0mm 0 W/m2
22:39 48.2 °F /  9 °C 41.4 °F /  5.2 °C 30.4in /  1028.1hPa Calm     77% 0in /  0.0mm 0 W/m2
22:44 48 °F /  8.9 °C 41.2 °F /  5.1 °C 30.4in /  1028.1hPa Calm     77% 0in /  0.0mm 0 W/m2
22:49 47.8 °F /  8.8 °C 41.4 °F /  5.2 °C 30.4in /  1028.1hPa Calm     78% 0in /  0.0mm 0 W/m2
22:54 47.7 °F /  8.7 °C 41.2 °F /  5.1 °C 30.4in /  1028.1hPa Calm     78% 0in /  0.0mm 0 W/m2
22:59 47.5 °F /  8.6 °C 41 °F /  5 °C 30.4in /  1028.1hPa Calm     78% 0in /  0.0mm 0 W/m2
23:04 47.1 °F /  8.4 °C 40.6 °F /  4.8 °C 30.4in /  1028.1hPa Calm     78% 0in /  0.0mm 0 W/m2
23:09 46.9 °F /  8.3 °C 40.8 °F /  4.9 °C 30.4in /  1028.1hPa Calm     79% 0in /  0.0mm 0 W/m2
23:14 46.9 °F /  8.3 °C 40.8 °F /  4.9 °C 30.4in /  1028.1hPa Calm     79% 0in /  0.0mm 0 W/m2
23:19 46.8 °F /  8.2 °C 40.6 °F /  4.8 °C 30.4in /  1028.1hPa Calm     79% 0in /  0.0mm 0 W/m2
23:24 46.6 °F /  8.1 °C 40.5 °F /  4.7 °C 30.4in /  1028.1hPa Calm     79% 0in /  0.0mm 0 W/m2
23:29 46.6 °F /  8.1 °C 40.5 °F /  4.7 °C 30.4in /  1028.1hPa Calm     79% 0in /  0.0mm 0 W/m2
23:34 46.8 °F /  8.2 °C 40.6 °F /  4.8 °C 30.4in /  1028.1hPa Calm     79% 0in /  0.0mm 0 W/m2
23:39 46.6 °F /  8.1 °C 40.5 °F /  4.7 °C 30.4in /  1028.1hPa Calm     79% 0in /  0.0mm 0 W/m2
23:44 46.6 °F /  8.1 °C 40.8 °F /  4.9 °C 30.4in /  1028.1hPa Calm     80% 0in /  0.0mm 0 W/m2
23:49 46.6 °F /  8.1 °C 40.5 °F /  4.7 °C 30.4in /  1028.1hPa Calm     79% 0in /  0.0mm 0 W/m2
23:54 46.6 °F /  8.1 °C 40.8 °F /  4.9 °C 30.4in /  1028.1hPa Calm     80% 0in /  0.0mm 0 W/m2
23:59 46.2 °F /  7.9 °C 40.5 °F /  4.7 °C 30.4in /  1028.1hPa West 2mph /  3.2km/h 2mph /  3.2km/h 80% 0in /  0.0mm 0 W/m2
Juneau County Weather
Compliments of Weather Underground - 4 mb